Time;durP1;ratioP1;P1;durP2;ratioP2;P2;SDS_P1;SDS_P2;PMS_P1;PMS_P2;Temp;Humidity;BMP_temperature;BMP_pressure;BME280_temperature;BME280_humidity;BME280_pressure;Samples;Min_cycle;Max_cycle;Signal;HPM_P1;HPM_P2
2022/06/12 00:01:42;;;;;;;4.18;3.78;;;;;;;;;;5135521;27;20019;-68
2022/06/12 00:04:07;;;;;;;5.05;3.72;;;;;;;;;;5117105;27;20454;-65
2022/06/12 00:06:32;;;;;;;5.95;3.97;;;;;;;;;;5135572;27;20031;-70
2022/06/12 00:08:58;;;;;;;3.95;3.67;;;;;;;;;;5135595;27;20026;-69
2022/06/12 00:11:26;;;;;;;5.32;4.10;;;;;;;;;;5135517;27;20023;-69
2022/06/12 00:13:53;;;;;;;4.40;3.90;;;;;;;;;;5135470;27;20023;-69
2022/06/12 00:16:20;;;;;;;4.70;4.03;;;;;;;;;;5135223;27;20046;-69
2022/06/12 00:18:45;;;;;;;5.53;4.00;;;;;;;;;;5135417;27;20067;-70
2022/06/12 00:21:11;;;;;;;5.15;3.50;;;;;;;;;;5135273;27;20399;-69
2022/06/12 00:26:19;;;;;;;6.05;3.97;;;;;;;;;;5118583;22;20184;-67
2022/06/12 00:28:44;;;;;;;4.28;3.90;;;;;;;;;;5114485;28;20020;-67
2022/06/12 00:31:10;;;;;;;3.38;3.15;;;;;;;;;;5114426;28;20043;-67
2022/06/12 00:33:35;;;;;;;4.10;3.28;;;;;;;;;;5114673;28;20108;-67
2022/06/12 00:36:00;;;;;;;3.07;2.70;;;;;;;;;;5096663;28;20469;-68
2022/06/12 00:38:26;;;;;;;3.55;3.25;;;;;;;;;;5114604;28;20792;-67
2022/06/12 00:40:51;;;;;;;3.20;3.00;;;;;;;;;;5114715;28;20031;-68
2022/06/12 00:43:17;;;;;;;4.13;3.78;;;;;;;;;;5114309;28;20115;-67
2022/06/12 00:45:42;;;;;;;4.43;4.03;;;;;;;;;;5114332;28;20028;-68
2022/06/12 00:48:10;;;;;;;4.95;3.40;;;;;;;;;;5114382;28;20028;-67
2022/06/12 00:50:37;;;;;;;4.05;3.65;;;;;;;;;;5114436;28;20016;-66
2022/06/12 00:53:02;;;;;;;4.55;4.18;;;;;;;;;;5114232;28;20030;-66
2022/06/12 00:55:39;;;;;;;4.88;4.43;;;;;;;;;;5114180;28;20012;-65
2022/06/12 00:58:07;;;;;;;5.07;4.03;;;;;;;;;;5095930;28;20106;-66
2022/06/12 01:00:36;;;;;;;6.00;4.55;;;;;;;;;;5113868;28;20022;-67
2022/06/12 01:03:02;;;;;;;6.20;5.00;;;;;;;;;;5114323;28;20028;-70
2022/06/12 01:10:40;;;;;;;8.32;5.35;;;;;;;;;;5139052;22;20059;-69
2022/06/12 01:13:11;;;;;;;6.50;5.03;;;;;;;;;;5134552;28;20451;-69
2022/06/12 01:15:41;;;;;;;7.93;4.93;;;;;;;;;;5134510;28;20031;-70
2022/06/12 01:18:09;;;;;;;10.15;4.75;;;;;;;;;;5134356;28;20035;-69
2022/06/12 01:20:39;;;;;;;5.45;4.20;;;;;;;;;;5134573;28;20024;-69
2022/06/12 01:23:19;;;;;;;5.17;3.93;;;;;;;;;;5134269;28;20459;-69
2022/06/12 01:25:45;;;;;;;;;;;;;;;;;;5135078;28;20031;-69
2022/06/12 01:28:32;;;;;;;7.17;4.07;;;;;;;;;;5134485;28;19904;-69
2022/06/12 01:31:15;;;;;;;6.47;4.07;;;;;;;;;;5134636;28;20168;-69
2022/06/12 01:34:09;;;;;;;6.95;4.85;;;;;;;;;;5134395;28;20115;-69
2022/06/12 01:36:37;;;;;;;8.02;4.35;;;;;;;;;;5138432;27;20497;-69
2022/06/12 01:39:10;;;;;;;5.97;4.45;;;;;;;;;;5138183;27;20431;-69
2022/06/12 01:41:41;;;;;;;6.05;4.35;;;;;;;;;;5138181;27;20031;-66
2022/06/12 01:44:15;;;;;;;5.88;4.03;;;;;;;;;;5138010;27;20433;-66
2022/06/12 01:46:43;;;;;;;7.18;4.18;;;;;;;;;;5138202;27;20094;-67
2022/06/12 01:49:14;;;;;;;5.00;3.20;;;;;;;;;;5138431;27;20018;-65
2022/06/12 01:51:58;;;;;;;4.30;3.08;;;;;;;;;;5120104;27;20035;-67
2022/06/12 01:54:33;;;;;;;4.40;3.15;;;;;;;;;;5138421;27;20027;-66
2022/06/12 01:57:10;;;;;;;5.45;4.13;;;;;;;;;;5137965;27;20027;-67
2022/06/12 01:59:38;;;;;;;5.88;3.78;;;;;;;;;;5137777;27;20042;-66
2022/06/12 02:02:26;;;;;;;6.90;4.10;;;;;;;;;;5137788;27;20071;-67
2022/06/12 02:04:57;;;;;;;9.25;3.92;;;;;;;;;;5137860;27;20466;-66
2022/06/12 02:07:29;;;;;;;3.92;3.30;;;;;;;;;;5119289;27;20355;-67
2022/06/12 02:10:15;;;;;;;6.75;3.83;;;;;;;;;;5137180;27;20039;-66
2022/06/12 02:15:30;;;;;;;3.42;3.13;;;;;;;;;;5137054;27;20063;-66
2022/06/12 02:17:59;;;;;;;7.35;3.65;;;;;;;;;;5137220;27;20058;-66
2022/06/12 02:20:30;;;;;;;4.10;3.70;;;;;;;;;;5136974;27;20424;-67
2022/06/12 02:22:57;;;;;;;5.50;3.00;;;;;;;;;;5135708;27;20038;-67
2022/06/12 02:25:24;;;;;;;4.20;2.88;;;;;;;;;;5135554;27;20027;-67
2022/06/12 02:27:53;;;;;;;5.60;3.10;;;;;;;;;;5135730;27;20023;-67
2022/06/12 02:30:23;;;;;;;3.03;2.72;;;;;;;;;;5136291;27;20026;-67
2022/06/12 02:32:51;;;;;;;5.07;2.92;;;;;;;;;;5135989;27;20110;-66
2022/06/12 02:35:26;;;;;;;3.13;2.83;;;;;;;;;;5117610;27;20106;-66
2022/06/12 02:37:54;;;;;;;5.35;2.92;;;;;;;;;;5137202;27;20019;-66
2022/06/12 02:40:22;;;;;;;3.40;2.88;;;;;;;;;;5118996;27;20026;-67
2022/06/12 02:42:49;;;;;;;3.97;3.00;;;;;;;;;;5137191;27;20040;-66
2022/06/12 02:45:35;;;;;;;2.90;2.67;;;;;;;;;;5137004;27;20015;-66
2022/06/12 02:48:01;;;;;;;4.53;2.75;;;;;;;;;;5135726;27;20070;-67
2022/06/12 02:50:31;;;;;;;3.05;2.83;;;;;;;;;;5137035;27;20100;-66
2022/06/12 02:53:06;;;;;;;3.35;2.72;;;;;;;;;;5136951;27;20451;-66
2022/06/12 02:55:34;;;;;;;4.65;2.70;;;;;;;;;;5136991;27;20072;-66
2022/06/12 02:58:02;;;;;;;3.30;3.00;;;;;;;;;;5136902;27;20027;-66
2022/06/12 03:00:34;;;;;;;3.38;3.17;;;;;;;;;;5118450;27;20027;-67
2022/06/12 03:03:14;;;;;;;3.00;2.60;;;;;;;;;;5118667;27;20398;-67
2022/06/12 03:05:40;;;;;;;;;;;;;;;;;;5137155;27;20050;-66
2022/06/12 03:08:08;;;;;;;2.78;2.50;;;;;;;;;;5136705;27;19926;-67
2022/06/12 03:10:36;;;;;;;3.38;2.45;;;;;;;;;;5135902;27;20065;-67
2022/06/12 03:13:03;;;;;;;4.38;2.78;;;;;;;;;;5136159;27;20420;-66
2022/06/12 03:15:43;;;;;;;3.00;2.40;;;;;;;;;;5136029;27;20550;-67
2022/06/12 03:18:09;;;;;;;;;;;;;;;;;;5136894;27;20031;-67
2022/06/12 03:20:52;;;;;;;4.10;2.50;;;;;;;;;;5136265;27;19910;-67
2022/06/12 03:23:38;;;;;;;2.85;2.65;;;;;;;;;;5136388;27;20068;-69
2022/06/12 03:26:06;;;;;;;3.03;2.70;;;;;;;;;;5118015;27;20039;-67
2022/06/12 03:28:41;;;;;;;2.65;2.42;;;;;;;;;;5136046;27;20030;-66
2022/06/12 03:31:23;;;;;;;2.83;2.33;;;;;;;;;;5117584;27;20027;-68
2022/06/12 03:34:06;;;;;;;4.07;2.85;;;;;;;;;;5136340;27;20038;-67
2022/06/12 03:36:35;;;;;;;2.47;2.28;;;;;;;;;;5136110;27;20027;-66
2022/06/12 03:39:00;;;;;;;6.57;2.85;;;;;;;;;;5135915;27;20030;-68
2022/06/12 03:41:28;;;;;;;4.10;2.60;;;;;;;;;;5135904;27;20366;-67
2022/06/12 03:44:14;;;;;;;2.58;2.35;;;;;;;;;;5135927;27;20048;-69
2022/06/12 03:46:52;;;;;;;2.30;2.10;;;;;;;;;;5135667;27;20462;-70
2022/06/12 03:49:38;;;;;;;2.17;2.08;;;;;;;;;;5135438;27;20019;-69
2022/06/12 03:52:03;;;;;;;2.45;2.30;;;;;;;;;;5116589;27;20368;-70
2022/06/12 03:54:32;;;;;;;2.10;2.00;;;;;;;;;;5136008;27;20092;-70
2022/06/12 04:00:04;;;;;;;3.40;2.63;;;;;;;;;;5135007;27;20048;-70
2022/06/12 04:02:38;;;;;;;3.13;2.92;;;;;;;;;;5135444;27;20386;-69
2022/06/12 04:05:05;;;;;;;6.10;5.70;;;;;;;;;;5116848;27;20027;-69
2022/06/12 04:07:33;;;;;;;4.53;4.13;;;;;;;;;;5135197;27;20022;-69
2022/06/12 04:10:02;;;;;;;3.22;3.03;;;;;;;;;;5135442;27;20031;-69
2022/06/12 04:12:28;;;;;;;6.18;5.65;;;;;;;;;;5135441;27;20083;-69
2022/06/12 04:15:12;;;;;;;4.80;4.55;;;;;;;;;;5117259;27;20106;-69
2022/06/12 04:17:38;;;;;;;76.05;6.57;;;;;;;;;;5117219;27;20055;-69
2022/06/12 04:20:05;;;;;;;3.50;3.20;;;;;;;;;;5135207;27;20065;-68
2022/06/12 04:22:37;;;;;;;3.55;3.25;;;;;;;;;;5135360;27;20039;-69
2022/06/12 04:25:16;;;;;;;2.80;2.60;;;;;;;;;;5135314;27;20035;-69
2022/06/12 04:27:42;;;;;;;2.10;2.00;;;;;;;;;;5135359;27;20155;-69
2022/06/12 04:30:25;;;;;;;2.03;1.92;;;;;;;;;;5135253;27;20019;-69
2022/06/12 04:33:01;;;;;;;2.03;1.80;;;;;;;;;;5134892;27;20042;-69
2022/06/12 04:35:26;;;;;;;2.08;1.98;;;;;;;;;;5116594;27;20432;-69
2022/06/12 04:37:52;;;;;;;1.77;1.67;;;;;;;;;;5135463;27;20019;-69
2022/06/12 04:40:24;;;;;;;2.03;1.92;;;;;;;;;;5135160;27;20031;-67
2022/06/12 04:42:50;;;;;;;2.55;2.08;;;;;;;;;;5134753;28;20051;-65
2022/06/12 04:45:15;;;;;;;2.45;1.80;;;;;;;;;;5134957;28;20451;-66
2022/06/12 04:47:42;;;;;;;2.03;1.83;;;;;;;;;;5134994;28;20061;-66
2022/06/12 04:50:12;;;;;;;2.15;1.95;;;;;;;;;;5134984;28;20454;-67
2022/06/12 04:52:38;;;;;;;1.90;1.75;;;;;;;;;;5135501;28;20106;-66
2022/06/12 04:55:03;;;;;;;2.92;2.03;;;;;;;;;;5115739;28;20051;-76
2022/06/12 04:57:29;;;;;;;2.22;2.05;;;;;;;;;;5134162;28;20031;-70
2022/06/12 04:59:55;;;;;;;2.17;2.00;;;;;;;;;;5134171;28;20024;-71
2022/06/12 05:02:21;;;;;;;2.17;1.98;;;;;;;;;;5130663;28;20030;-71
2022/06/12 05:04:47;;;;;;;2.30;2.10;;;;;;;;;;5134035;28;20022;-71
2022/06/12 05:07:13;;;;;;;2.22;2.13;;;;;;;;;;5134064;28;20027;-75
2022/06/12 05:09:42;;;;;;;2.30;2.10;;;;;;;;;;5134873;27;20039;-74
2022/06/12 05:12:09;;;;;;;2.10;1.95;;;;;;;;;;5138240;27;20030;-72
2022/06/12 05:14:34;;;;;;;2.30;2.20;;;;;;;;;;5137258;27;20027;-69
2022/06/12 05:17:02;;;;;;;3.20;2.15;;;;;;;;;;5137180;27;20101;-69
2022/06/12 05:19:29;;;;;;;2.05;1.95;;;;;;;;;;5137215;27;20047;-69
2022/06/12 05:21:55;;;;;;;2.53;2.33;;;;;;;;;;5137070;27;20042;-69
2022/06/12 05:24:21;;;;;;;2.40;2.20;;;;;;;;;;5137133;27;20007;-69
2022/06/12 05:26:48;;;;;;;3.50;2.38;;;;;;;;;;5137127;27;20103;-69
2022/06/12 05:29:17;;;;;;;3.03;2.20;;;;;;;;;;5137110;27;20015;-69
2022/06/12 05:31:43;;;;;;;2.95;2.75;;;;;;;;;;5137022;27;20027;-69
2022/06/12 05:34:08;;;;;;;2.60;2.40;;;;;;;;;;5118644;27;20076;-69
2022/06/12 05:36:35;;;;;;;3.00;2.80;;;;;;;;;;5136837;27;20379;-69
2022/06/12 05:39:00;;;;;;;3.97;2.60;;;;;;;;;;5136841;27;20023;-68
2022/06/12 05:41:26;;;;;;;3.67;2.28;;;;;;;;;;5136727;27;20501;-69
2022/06/12 05:43:51;;;;;;;5.07;2.78;;;;;;;;;;5136758;27;20043;-64
2022/06/12 05:46:17;;;;;;;3.80;2.50;;;;;;;;;;5136879;27;20497;-65
2022/06/12 05:48:43;;;;;;;2.65;2.40;;;;;;;;;;5136715;27;20458;-66
2022/06/12 05:51:11;;;;;;;2.40;2.20;;;;;;;;;;5118658;27;20430;-64
2022/06/12 05:53:36;;;;;;;2.65;2.47;;;;;;;;;;5118388;27;20050;-65
2022/06/12 05:56:05;;;;;;;2.40;2.20;;;;;;;;;;5136496;27;20423;-64
2022/06/12 05:58:30;;;;;;;2.83;2.13;;;;;;;;;;5135204;27;20074;-65
2022/06/12 06:00:56;;;;;;;2.88;2.42;;;;;;;;;;5136372;27;20025;-64
2022/06/12 06:03:21;;;;;;;3.08;2.20;;;;;;;;;;5136426;27;20456;-64
2022/06/12 06:05:47;;;;;;;2.97;2.35;;;;;;;;;;5136332;27;20420;-66
2022/06/12 06:08:13;;;;;;;2.55;2.35;;;;;;;;;;5136270;27;20019;-64
2022/06/12 06:10:40;;;;;;;2.78;2.25;;;;;;;;;;5116455;27;20039;-64
2022/06/12 06:13:05;;;;;;;2.88;2.25;;;;;;;;;;5135649;27;20474;-65
2022/06/12 06:15:30;;;;;;;2.25;1.98;;;;;;;;;;5135880;27;20099;-65
2022/06/12 06:17:56;;;;;;;4.18;2.15;;;;;;;;;;5135817;27;20046;-65
2022/06/12 06:20:24;;;;;;;2.92;2.25;;;;;;;;;;5133802;27;20442;-65
2022/06/12 06:22:50;;;;;;;3.88;2.67;;;;;;;;;;5131319;27;20059;-66
2022/06/12 06:25:15;;;;;;;3.85;2.15;;;;;;;;;;5128740;27;20500;-65
2022/06/12 06:27:41;;;;;;;2.78;2.35;;;;;;;;;;5131892;27;20062;-65
2022/06/12 06:30:07;;;;;;;3.72;1.92;;;;;;;;;;5113300;27;20102;-66
2022/06/12 06:32:33;;;;;;;3.60;2.38;;;;;;;;;;5131896;27;20023;-65
2022/06/12 06:34:59;;;;;;;1.83;1.73;;;;;;;;;;5131713;27;20434;-64
2022/06/12 06:37:24;;;;;;;2.13;2.03;;;;;;;;;;5131963;27;20035;-65
2022/06/12 06:39:49;;;;;;;5.60;2.28;;;;;;;;;;5131517;27;20131;-64
2022/06/12 06:42:15;;;;;;;3.35;2.33;;;;;;;;;;5131596;27;20029;-65
2022/06/12 06:47:27;;;;;;;2.40;2.08;;;;;;;;;;5134715;27;20493;-65
2022/06/12 06:49:52;;;;;;;3.13;1.77;;;;;;;;;;5135799;27;20023;-65
2022/06/12 06:52:19;;;;;;;4.25;2.08;;;;;;;;;;5135338;27;20035;-65
2022/06/12 06:54:45;;;;;;;1.65;1.55;;;;;;;;;;5135388;27;20068;-65
2022/06/12 06:57:11;;;;;;;3.40;1.48;;;;;;;;;;5116857;27;20126;-65
2022/06/12 06:59:37;;;;;;;2.72;2.50;;;;;;;;;;5135220;27;20030;-66
2022/06/12 07:02:03;;;;;;;2.25;2.05;;;;;;;;;;5135107;27;20027;-64
2022/06/12 07:04:28;;;;;;;3.17;1.95;;;;;;;;;;5135141;27;20481;-66
2022/06/12 07:06:54;;;;;;;3.63;1.83;;;;;;;;;;5135088;27;20027;-66
2022/06/12 07:09:19;;;;;;;2.75;1.88;;;;;;;;;;5134820;27;20054;-67
2022/06/12 07:11:44;;;;;;;2.22;2.03;;;;;;;;;;5134942;27;20386;-67
2022/06/12 07:14:10;;;;;;;2.38;2.10;;;;;;;;;;5134954;27;20031;-65
2022/06/12 07:16:36;;;;;;;3.47;2.20;;;;;;;;;;5134965;27;20027;-67
2022/06/12 07:19:02;;;;;;;3.25;1.85;;;;;;;;;;5134787;27;20098;-65
2022/06/12 07:21:27;;;;;;;2.95;1.85;;;;;;;;;;5116299;27;20130;-66
2022/06/12 07:23:52;;;;;;;3.08;2.40;;;;;;;;;;5116360;27;20094;-66
2022/06/12 07:26:20;;;;;;;2.40;2.00;;;;;;;;;;5134694;27;20024;-66
2022/06/12 07:28:46;;;;;;;3.85;1.70;;;;;;;;;;5135338;27;20081;-66
2022/06/12 07:31:11;;;;;;;3.33;2.40;;;;;;;;;;5135807;27;20033;-66
2022/06/12 07:33:39;;;;;;;3.03;2.10;;;;;;;;;;5135686;27;20458;-66
2022/06/12 07:36:07;;;;;;;2.30;2.10;;;;;;;;;;5117241;27;20100;-65
2022/06/12 07:38:32;;;;;;;2.90;2.20;;;;;;;;;;5115311;27;20415;-66
2022/06/12 07:41:00;;;;;;;3.30;2.22;;;;;;;;;;5134246;27;20068;-66
2022/06/12 07:43:26;;;;;;;2.58;1.95;;;;;;;;;;5135548;27;20022;-65
2022/06/12 07:45:53;;;;;;;1.92;1.65;;;;;;;;;;5134295;27;20034;-66
2022/06/12 07:48:19;;;;;;;2.85;1.70;;;;;;;;;;5115100;27;20022;-67
2022/06/12 07:50:45;;;;;;;3.00;1.75;;;;;;;;;;5133507;27;20098;-65
2022/06/12 07:53:11;;;;;;;2.72;1.67;;;;;;;;;;5114959;27;20538;-66
2022/06/12 07:55:37;;;;;;;1.83;1.70;;;;;;;;;;5133193;27;20114;-66
2022/06/12 07:58:03;;;;;;;2.97;2.10;;;;;;;;;;5133171;27;20099;-66
2022/06/12 08:00:28;;;;;;;3.80;2.10;;;;;;;;;;5133111;27;20035;-65
2022/06/12 08:02:55;;;;;;;3.00;2.15;;;;;;;;;;5133088;27;20015;-64
2022/06/12 08:05:21;;;;;;;3.10;2.10;;;;;;;;;;5132995;27;20076;-66
2022/06/12 08:07:46;;;;;;;2.38;2.20;;;;;;;;;;5132938;27;20011;-66
2022/06/12 08:10:12;;;;;;;3.85;2.10;;;;;;;;;;5134528;27;20043;-66
2022/06/12 08:12:38;;;;;;;3.33;2.22;;;;;;;;;;5135031;27;20184;-66
2022/06/12 08:15:05;;;;;;;2.47;2.00;;;;;;;;;;5134901;27;20035;-66
2022/06/12 08:17:30;;;;;;;2.42;2.03;;;;;;;;;;5134982;27;20046;-66
2022/06/12 08:22:41;;;;;;;3.28;2.08;;;;;;;;;;5134917;27;20042;-67
2022/06/12 08:25:06;;;;;;;3.30;2.00;;;;;;;;;;5134803;27;20019;-66
2022/06/12 08:27:32;;;;;;;1.83;1.73;;;;;;;;;;5134764;27;20490;-66
2022/06/12 08:29:58;;;;;;;3.50;1.60;;;;;;;;;;5116295;28;20016;-66
2022/06/12 08:32:23;;;;;;;1.92;1.65;;;;;;;;;;5134706;27;20023;-65
2022/06/12 08:34:57;;;;;;;1.80;1.70;;;;;;;;;;5134735;27;20011;-64
2022/06/12 08:37:26;;;;;;;2.35;1.40;;;;;;;;;;5134944;27;20420;-65
2022/06/12 08:39:51;;;;;;;1.48;1.38;;;;;;;;;;5134621;27;20023;-64
2022/06/12 08:42:41;;;;;;;4.07;1.80;;;;;;;;;;5134512;28;20110;-65
2022/06/12 08:45:15;;;;;;;1.58;1.42;;;;;;;;;;5121428;27;20043;-66
2022/06/12 08:47:46;;;;;;;3.80;1.92;;;;;;;;;;5134672;28;20466;-66
2022/06/12 08:50:15;;;;;;;1.58;1.35;;;;;;;;;;5134531;28;20027;-65
2022/06/12 08:52:43;;;;;;;3.30;1.63;;;;;;;;;;5134573;28;20107;-66
2022/06/12 08:55:25;;;;;;;1.48;1.38;;;;;;;;;;5116030;28;20042;-65
2022/06/12 08:57:55;;;;;;;1.55;1.30;;;;;;;;;;5116207;28;20450;-66
2022/06/12 09:00:23;;;;;;;1.55;1.45;;;;;;;;;;5134465;28;20360;-66
2022/06/12 09:02:48;;;;;;;1.85;1.40;;;;;;;;;;5134331;28;20020;-65
2022/06/12 09:05:16;;;;;;;1.38;1.27;;;;;;;;;;5134413;28;20036;-66
2022/06/12 09:07:41;;;;;;;1.67;1.50;;;;;;;;;;5116037;28;20102;-64
2022/06/12 09:10:12;;;;;;;1.50;1.40;;;;;;;;;;5134149;28;20490;-65
2022/06/12 09:12:47;;;;;;;1.88;1.48;;;;;;;;;;5133470;28;20041;-65
2022/06/12 09:15:21;;;;;;;1.40;1.30;;;;;;;;;;5114960;28;20027;-65
2022/06/12 09:17:58;;;;;;;1.60;1.50;;;;;;;;;;5134331;28;20038;-66
2022/06/12 09:20:26;;;;;;;1.40;1.30;;;;;;;;;;5134374;28;20019;-66
2022/06/12 09:23:01;;;;;;;1.98;1.55;;;;;;;;;;5134445;28;20030;-67
2022/06/12 09:25:31;;;;;;;2.05;1.48;;;;;;;;;;5134356;28;20027;-67
2022/06/12 09:28:05;;;;;;;1.55;1.42;;;;;;;;;;5115936;28;20046;-63
2022/06/12 09:30:37;;;;;;;2.20;1.30;;;;;;;;;;5134275;28;20031;-65
2022/06/12 09:33:10;;;;;;;1.40;1.30;;;;;;;;;;5134273;28;20031;-63
2022/06/12 09:35:41;;;;;;;1.33;1.23;;;;;;;;;;5134252;28;20470;-65
2022/06/12 09:38:19;;;;;;;2.05;1.20;;;;;;;;;;5134214;28;20031;-65
2022/06/12 09:40:53;;;;;;;1.52;1.42;;;;;;;;;;5134097;28;20035;-63
2022/06/12 09:43:45;;;;;;;3.35;1.80;;;;;;;;;;5134137;28;20039;-64
2022/06/12 09:46:18;;;;;;;1.77;1.58;;;;;;;;;;5129048;28;20088;-66
2022/06/12 09:48:47;;;;;;;2.35;1.60;;;;;;;;;;5133971;28;20027;-66
2022/06/12 09:51:23;;;;;;;1.65;1.55;;;;;;;;;;5115518;28;20468;-66
2022/06/12 09:53:48;;;;;;;2.67;1.40;;;;;;;;;;5133928;28;20035;-66
2022/06/12 09:56:35;;;;;;;1.38;1.27;;;;;;;;;;5134208;27;20023;-66
2022/06/12 09:59:13;;;;;;;2.08;1.20;;;;;;;;;;5118070;27;20055;-65
2022/06/12 10:01:41;;;;;;;1.60;1.40;;;;;;;;;;5137045;27;20027;-64
2022/06/12 10:04:11;;;;;;;1.20;1.10;;;;;;;;;;5134914;27;20022;-63
2022/06/12 10:06:58;;;;;;;1.52;1.40;;;;;;;;;;5135828;27;20027;-66
2022/06/12 10:09:32;;;;;;;2.28;1.33;;;;;;;;;;5117098;27;20031;-64
2022/06/12 10:12:03;;;;;;;2.20;1.42;;;;;;;;;;5135713;27;20035;-65
2022/06/12 10:14:35;;;;;;;4.03;1.92;;;;;;;;;;5136335;27;20041;-65
2022/06/12 10:17:20;;;;;;;2.30;1.50;;;;;;;;;;5135738;27;20394;-65
2022/06/12 10:19:49;;;;;;;2.88;1.23;;;;;;;;;;5134422;27;20039;-65
2022/06/12 10:22:42;;;;;;;2.05;1.02;;;;;;;;;;5135042;27;20029;-66
2022/06/12 10:25:15;;;;;;;1.75;1.40;;;;;;;;;;5131496;27;20035;-65
2022/06/12 10:27:46;;;;;;;2.03;1.50;;;;;;;;;;5116587;27;20027;-64
2022/06/12 10:30:22;;;;;;;1.42;1.33;;;;;;;;;;5135298;27;20027;-69
2022/06/12 10:32:53;;;;;;;2.83;2.63;;;;;;;;;;5135364;27;20034;-69
2022/06/12 10:35:21;;;;;;;1.25;1.20;;;;;;;;;;5117068;27;20042;-69
2022/06/12 10:37:47;;;;;;;3.17;1.55;;;;;;;;;;5115960;27;20031;-69
2022/06/12 10:40:16;;;;;;;2.35;1.65;;;;;;;;;;5136888;27;20046;-69
2022/06/12 10:42:50;;;;;;;2.70;1.58;;;;;;;;;;5136803;27;20023;-69
2022/06/12 10:45:20;;;;;;;2.33;1.58;;;;;;;;;;5136810;27;20521;-68
2022/06/12 10:47:47;;;;;;;1.50;1.40;;;;;;;;;;5136743;27;20023;-69
2022/06/12 10:50:15;;;;;;;2.80;2.00;;;;;;;;;;5136573;27;20015;-65
2022/06/12 10:52:51;;;;;;;2.20;1.67;;;;;;;;;;5118140;27;20039;-66
2022/06/12 10:55:18;;;;;;;1.45;1.30;;;;;;;;;;5136600;27;20534;-65
2022/06/12 10:57:50;;;;;;;2.63;1.70;;;;;;;;;;5136406;27;20455;-66
2022/06/12 11:00:20;;;;;;;2.55;1.45;;;;;;;;;;5136364;27;20489;-65
2022/06/12 11:02:59;;;;;;;1.42;1.20;;;;;;;;;;5136349;27;20034;-65
2022/06/12 11:05:44;;;;;;;2.53;1.40;;;;;;;;;;5136314;27;20031;-65
2022/06/12 11:08:33;;;;;;;3.05;1.55;;;;;;;;;;5136087;27;20035;-65
2022/06/12 11:11:15;;;;;;;1.65;1.48;;;;;;;;;;5135712;27;20463;-65
2022/06/12 11:13:53;;;;;;;1.92;1.40;;;;;;;;;;5136104;27;20027;-65
2022/06/12 11:16:37;;;;;;;1.45;1.33;;;;;;;;;;5136064;27;20490;-65
2022/06/12 11:19:15;;;;;;;2.05;1.60;;;;;;;;;;5136035;27;20026;-66
2022/06/12 11:21:43;;;;;;;2.20;1.40;;;;;;;;;;5117428;27;20402;-65
2022/06/12 11:24:34;;;;;;;13.73;2.47;;;;;;;;;;5135966;27;20019;-66
2022/06/12 11:27:35;;;;;;;2.85;1.85;;;;;;;;;;5097066;27;20095;-65
2022/06/12 11:30:00;;;;;;;;;;;;;;;;;;5033183;28;20061;-65
2022/06/12 11:32:26;;;;;;;1.43;1.33;;;;;;;;;;5114155;27;20342;-66
2022/06/12 11:34:57;;;;;;;2.92;1.55;;;;;;;;;;5100308;27;20035;-66
2022/06/12 11:37:25;;;;;;;2.15;1.52;;;;;;;;;;5117344;27;20034;-68
2022/06/12 11:39:56;;;;;;;1.42;1.35;;;;;;;;;;5135745;27;20027;-69
2022/06/12 11:42:22;;;;;;;1.50;1.20;;;;;;;;;;5135602;27;20122;-68
2022/06/12 11:44:53;;;;;;;1.70;1.30;;;;;;;;;;5135555;27;20138;-68
2022/06/12 11:47:18;;;;;;;1.40;1.30;;;;;;;;;;5135721;27;20267;-69
2022/06/12 11:49:49;;;;;;;1.50;1.40;;;;;;;;;;5135434;27;20011;-68
2022/06/12 11:52:21;;;;;;;2.05;1.30;;;;;;;;;;5135291;27;20306;-68
2022/06/12 11:54:49;;;;;;;1.77;1.60;;;;;;;;;;5135373;27;20525;-68
2022/06/12 11:57:18;;;;;;;1.30;1.20;;;;;;;;;;5135398;27;20019;-68
2022/06/12 11:59:52;;;;;;;1.50;1.40;;;;;;;;;;5135261;27;20031;-69
2022/06/12 12:02:36;;;;;;;1.52;1.42;;;;;;;;;;5116704;27;20055;-69
2022/06/12 12:05:17;;;;;;;2.08;1.50;;;;;;;;;;5135167;27;20382;-70
2022/06/12 12:08:01;;;;;;;2.17;1.50;;;;;;;;;;5135048;27;20023;-68
2022/06/12 12:10:30;;;;;;;1.75;1.40;;;;;;;;;;5134983;27;20114;-69
2022/06/12 12:12:58;;;;;;;3.03;1.40;;;;;;;;;;5135217;27;20490;-70
2022/06/12 12:15:28;;;;;;;3.33;1.42;;;;;;;;;;5134979;27;20102;-69
2022/06/12 12:17:55;;;;;;;2.75;1.70;;;;;;;;;;5135070;27;20099;-69
2022/06/12 12:20:22;;;;;;;1.60;1.50;;;;;;;;;;5134147;27;20033;-69
2022/06/12 12:22:51;;;;;;;1.38;1.30;;;;;;;;;;5134784;27;20035;-69
2022/06/12 12:25:20;;;;;;;4.03;1.83;;;;;;;;;;5134818;27;20063;-69
2022/06/12 12:27:47;;;;;;;1.90;1.77;;;;;;;;;;5134855;27;20034;-69
2022/06/12 12:30:15;;;;;;;3.03;1.90;;;;;;;;;;5134769;27;20015;-69
2022/06/12 12:32:40;;;;;;;1.65;1.55;;;;;;;;;;5134769;27;20080;-69
2022/06/12 12:35:06;;;;;;;2.63;1.58;;;;;;;;;;5134687;27;20019;-68
2022/06/12 12:43:14;;;;;;;2.35;1.50;;;;;;;;;;5134602;27;20115;-68
2022/06/12 12:45:39;;;;;;;1.65;1.55;;;;;;;;;;5134581;28;20059;-70
2022/06/12 12:48:07;;;;;;;1.63;1.50;;;;;;;;;;5116171;28;20080;-69
2022/06/12 12:50:52;;;;;;;2.63;1.60;;;;;;;;;;5134557;28;20020;-68
2022/06/12 12:53:22;;;;;;;3.30;1.70;;;;;;;;;;5134514;28;20027;-69
2022/06/12 12:55:57;;;;;;;2.63;1.90;;;;;;;;;;5134525;28;20024;-68
2022/06/12 12:58:24;;;;;;;1.70;1.60;;;;;;;;;;5134411;28;20439;-69
2022/06/12 13:01:00;;;;;;;1.73;1.63;;;;;;;;;;5134364;28;20023;-65
2022/06/12 13:03:27;;;;;;;1.35;1.25;;;;;;;;;;5116173;28;20030;-65
2022/06/12 13:05:59;;;;;;;1.50;1.40;;;;;;;;;;5134341;28;20027;-65
2022/06/12 13:08:42;;;;;;;2.97;1.50;;;;;;;;;;5134364;28;20016;-66
2022/06/12 13:11:15;;;;;;;4.22;1.50;;;;;;;;;;5134210;28;20074;-66
2022/06/12 13:13:41;;;;;;;1.92;1.40;;;;;;;;;;5134318;28;20540;-66
2022/06/12 13:16:21;;;;;;;2.30;1.52;;;;;;;;;;5116049;28;20019;-66
2022/06/12 13:18:46;;;;;;;2.55;1.50;;;;;;;;;;5134324;28;20031;-65
2022/06/12 13:21:32;;;;;;;1.97;1.37;;;;;;;;;;5134214;28;20046;-65
2022/06/12 13:24:10;;;;;;;1.40;1.30;;;;;;;;;;5116270;28;20295;-66
2022/06/12 13:26:37;;;;;;;1.42;1.33;;;;;;;;;;5115717;28;20028;-66
2022/06/12 13:29:03;;;;;;;1.90;1.42;;;;;;;;;;5133802;28;20015;-64
2022/06/12 13:31:33;;;;;;;1.73;1.50;;;;;;;;;;5136575;27;20027;-66
2022/06/12 13:34:00;;;;;;;1.40;1.25;;;;;;;;;;5138121;27;20031;-66
2022/06/12 13:36:38;;;;;;;1.60;1.50;;;;;;;;;;5138279;27;20019;-66
2022/06/12 13:39:05;;;;;;;1.42;1.33;;;;;;;;;;5138170;27;20035;-66
2022/06/12 13:41:42;;;;;;;1.63;1.52;;;;;;;;;;5137951;27;20023;-66
2022/06/12 13:44:34;;;;;;;2.50;1.48;;;;;;;;;;5137993;27;20031;-66
2022/06/12 13:47:18;;;;;;;3.80;1.85;;;;;;;;;;5131267;27;20035;-66
2022/06/12 13:49:54;;;;;;;1.73;1.63;;;;;;;;;;5136729;27;20047;-66
2022/06/12 13:52:39;;;;;;;1.90;1.80;;;;;;;;;;5136732;27;20470;-66
2022/06/12 13:55:23;;;;;;;2.10;1.67;;;;;;;;;;5136785;27;20042;-65
2022/06/12 13:57:50;;;;;;;1.80;1.70;;;;;;;;;;5136300;27;20027;-66
2022/06/12 14:00:29;;;;;;;2.40;1.75;;;;;;;;;;5135703;27;20013;-66
2022/06/12 14:02:55;;;;;;;2.03;1.73;;;;;;;;;;5116997;27;20031;-65
2022/06/12 14:05:34;;;;;;;2.45;1.60;;;;;;;;;;5135384;27;20030;-66
2022/06/12 14:08:03;;;;;;;1.90;1.80;;;;;;;;;;5135771;27;20429;-67
2022/06/12 14:10:34;;;;;;;2.63;2.43;;;;;;;;;;5135553;27;20039;-66
2022/06/12 14:12:59;;;;;;;;;;;;;;;;;;5136138;27;20268;-66
2022/06/12 14:15:34;;;;;;;2.40;2.20;;;;;;;;;;5135561;27;20269;-66
2022/06/12 14:18:00;;;;;;;3.72;2.13;;;;;;;;;;5136187;27;20023;-69
2022/06/12 14:20:27;;;;;;;2.58;2.38;;;;;;;;;;5144233;22;20498;-69
2022/06/12 14:22:56;;;;;;;2.30;2.10;;;;;;;;;;5137145;27;20039;-70
2022/06/12 14:25:27;;;;;;;2.45;2.17;;;;;;;;;;5118861;27;20059;-70
2022/06/12 14:27:54;;;;;;;2.70;2.50;;;;;;;;;;5118859;27;20030;-70
2022/06/12 14:30:41;;;;;;;2.42;2.00;;;;;;;;;;5136977;27;20044;-70
2022/06/12 14:33:23;;;;;;;2.65;1.90;;;;;;;;;;5137104;27;20492;-70
2022/06/12 14:35:49;;;;;;;2.15;1.95;;;;;;;;;;5118674;27;20049;-70
2022/06/12 14:38:19;;;;;;;2.55;1.92;;;;;;;;;;5136915;27;20090;-70
2022/06/12 14:40:45;;;;;;;2.28;2.00;;;;;;;;;;5136831;27;20034;-69
2022/06/12 14:43:16;;;;;;;3.83;2.45;;;;;;;;;;5117468;27;20106;-69
2022/06/12 14:45:43;;;;;;;2.95;2.08;;;;;;;;;;5118440;27;20031;-69
2022/06/12 14:48:12;;;;;;;2.22;2.13;;;;;;;;;;5118319;27;20428;-70
2022/06/12 14:50:38;;;;;;;1.77;1.67;;;;;;;;;;5118195;27;20126;-69
2022/06/12 14:53:03;;;;;;;3.63;1.73;;;;;;;;;;5136699;27;20090;-69
2022/06/12 14:55:28;;;;;;;2.72;2.00;;;;;;;;;;5118418;27;20098;-69
2022/06/12 14:57:54;;;;;;;1.83;1.73;;;;;;;;;;5136428;27;20098;-70
2022/06/12 15:00:21;;;;;;;1.80;1.70;;;;;;;;;;5136488;27;20031;-69
2022/06/12 15:02:47;;;;;;;2.13;1.92;;;;;;;;;;5136393;27;20067;-69
2022/06/12 15:05:20;;;;;;;1.85;1.75;;;;;;;;;;5136730;27;20420;-69
2022/06/12 15:07:46;;;;;;;2.58;2.25;;;;;;;;;;5136261;27;20424;-69
2022/06/12 15:10:11;;;;;;;3.53;2.08;;;;;;;;;;5117879;27;20019;-69
2022/06/12 15:12:39;;;;;;;4.18;2.00;;;;;;;;;;5136161;27;20417;-69
2022/06/12 15:15:04;;;;;;;2.10;2.00;;;;;;;;;;5136227;27;20102;-69
2022/06/12 15:17:30;;;;;;;1.73;1.65;;;;;;;;;;5136184;27;20537;-69
2022/06/12 15:19:55;;;;;;;3.23;1.70;;;;;;;;;;5135866;27;20023;-70
2022/06/12 15:22:21;;;;;;;2.10;1.90;;;;;;;;;;5135895;27;20284;-69
2022/06/12 15:24:47;;;;;;;1.75;1.65;;;;;;;;;;5136071;27;20470;-69
2022/06/12 15:29:57;;;;;;;1.88;1.77;;;;;;;;;;5135989;27;20027;-69
2022/06/12 15:32:27;;;;;;;2.20;2.00;;;;;;;;;;5135831;27;20038;-69